Terminal Aerodrome Forecast
Issued by NWS Charleston, WV

Current Version | Previous Version | Graphics & Text | Print | Product List | Glossary On
Versions: 1 2 3 4 5 6 7 8 9 10 11 12 13 14 15 16 17 18 19 20 21 22
382
FTUS41 KRLX 292326
TAFEKN
TAF
KEKN 292326Z 3000/3024 VRB03KT P6SM BKN050
     FM300400 00000KT 4SM BR BKN080
     FM300800 00000KT 1/4SM FG VV001
     FM301300 00000KT 5SM BR FEW001 BKN070
     FM301400 31007KT P6SM BKN045=

USA.gov is the U.S. government's official web portal to all federal, state and local government web resources and services.